Flight Number: EUR1561 Duration: 6:00
Departure: Jeddah King Abdul Aziz (OEJN) at 00:00 Distance: 2544 Nm
Arrival: Gatwick Airport (EGKK) at 06:00 Equipment: B777

Weather Information
Jeddah King Abdul Aziz International Airport , Saudi Arabia (OEJN) 21-42N 039-11E 17M Feb 19, 2018 - 02:00 AM EST / 2018.02.19 0700 UTC
Wind: from the N (010 degrees) at 14 MPH (12 KT):0
Visibility: greater than 7 mile(s):0 Temperature: 75 F (24 C) Dew Point: 57 F (14 C) Relative Humidity: 53% Pressure (altimeter): 29.85 in. Hg (1011 hPa)
ob: OEJN 190700Z 01012KT CAVOK 24/14 Q1011 NOSIG cycle: 7
Sunrise: 03:53 Sunset: 15:20 (UTC)

London / Gatwick Airport, United Kingdom (EGKK) 51-09N 000-11W 0M Feb 19, 2018 - 02:20 AM EST / 2018.02.19 0720 UTC
Wind: from the SW (220 degrees) at 3 MPH (3 KT):0
Visibility: 1 mile(s):0
Sky conditions: overcast Weather: light drizzle Temperature: 44 F (7 C) Dew Point: 44 F (7 C) Relative Humidity: 100% Pressure (altimeter): 30.03 in. Hg (1017 hPa)
ob: EGKK 190720Z 22003KT 3000 -DZ BKN004 OVC021 07/07 Q1017 cycle: 7
Sunrise: 07:08 Sunset: 17:20 (UTC)

TAF:2018/02/19 06:20 TAF EGKK 190458Z 1906/2012 20003KT 4000 -DZ BR BKN006 TEMPO 1906/1910 0300 DZ FG BKN001 TEMPO 1910/2006 RADZ BKN003 BECMG 1912/1915 33010KT

Previous Pireps for this route
Date Aircraft Flight time Fuel used Landing rate On time
2015-04-03B757-20007.2210Charter
2016-01-26B7775.32155672-391Yes
2016-05-15B7776.091367440Charter
(pireps marked green are flown by you)

Route map